Time;durP1;ratioP1;P1;durP2;ratioP2;P2;SDS_P1;SDS_P2;PMS_P1;PMS_P2;Temp;Humidity;BMP_temperature;BMP_pressure;BME280_temperature;BME280_humidity;BME280_pressure;Samples;Min_cycle;Max_cycle;Signal;HPM_P1;HPM_P2
2022/12/06 00:00:08;;;;;;;9.27;4.60;;;;;;;-145.69;100.00;52745.41;5093303;28;20198;-84
2022/12/06 00:02:34;;;;;;;9.67;4.50;;;;;;;-145.69;100.00;52769.19;5093191;28;20202;-83
2022/12/06 00:05:01;;;;;;;6.17;3.87;;;;;;;-145.69;100.00;52729.56;5093255;28;20678;-84
2022/12/06 00:07:29;;;;;;;7.47;4.67;;;;;;;-145.69;100.00;52763.25;5093832;28;20312;-83
2022/12/06 00:09:57;;;;;;;8.67;4.50;;;;;;;-145.69;100.00;52741.47;5093486;28;20190;-83
2022/12/06 00:12:24;;;;;;;8.93;5.03;;;;;;;-145.69;100.00;52711.75;5093885;28;20296;-84
2022/12/06 00:14:53;;;;;;;7.93;4.57;;;;;;;-145.69;100.00;52741.47;5093554;28;20297;-84
2022/12/06 00:17:19;;;;;;;7.90;4.57;;;;;;;-145.69;100.00;52749.38;5093440;28;20542;-83
2022/12/06 00:19:46;;;;;;;9.00;4.60;;;;;;;-145.69;100.00;52735.50;5093779;28;20224;-83
2022/12/06 00:22:15;;;;;;;8.55;4.40;;;;;;;-145.69;100.00;52725.63;5093192;28;20766;-83
2022/12/06 00:24:42;;;;;;;8.53;4.43;;;;;;;-145.69;100.00;52699.88;5093621;28;20233;-83
2022/12/06 00:27:10;;;;;;;8.97;5.00;;;;;;;-145.69;100.00;52725.63;5093767;28;20316;-83
2022/12/06 00:29:39;;;;;;;6.63;4.33;;;;;;;-145.69;100.00;52757.31;5093205;28;20240;-83
2022/12/06 00:32:05;;;;;;;8.77;4.00;;;;;;;-145.69;100.00;52745.41;5093239;28;20641;-83
2022/12/06 00:34:32;;;;;;;6.27;3.77;;;;;;;-145.69;100.00;52725.63;5093003;28;20233;-83
2022/12/06 00:36:59;;;;;;;6.77;3.73;;;;;;;-145.69;100.00;52765.22;5093183;28;20198;-83
2022/12/06 00:39:25;;;;;;;5.80;3.60;;;;;;;-145.69;100.00;52733.53;5088202;28;20190;-84
2022/12/06 00:41:55;;;;;;;6.53;3.97;;;;;;;-145.69;100.00;52747.41;5092990;28;20221;-84
2022/12/06 00:44:23;;;;;;;7.03;3.37;;;;;;;-145.69;100.00;52731.56;5093234;28;20198;-83
2022/12/06 00:46:49;;;;;;;6.07;3.40;;;;;;;-145.69;100.00;52741.47;5083931;28;20233;-84
2022/12/06 00:49:16;;;;;;;7.63;3.07;;;;;;;-145.69;100.00;52709.78;5087150;28;20194;-80
2022/12/06 00:51:43;;;;;;;4.17;2.67;;;;;;;-145.69;100.00;52741.47;5093708;28;20290;-84
2022/12/06 00:54:13;;;;;;;7.00;2.90;;;;;;;-145.69;100.00;52785.03;5096978;28;20286;-83
2022/12/06 00:56:40;;;;;;;5.20;2.73;;;;;;;-145.69;100.00;52743.44;5097019;28;20252;-83
2022/12/06 00:59:07;;;;;;;4.13;2.77;;;;;;;-145.69;100.00;52741.47;5096753;28;20605;-84
2022/12/06 01:01:35;;;;;;;7.77;2.70;;;;;;;-145.69;100.00;52751.34;5096628;28;20221;-83
2022/12/06 01:04:05;;;;;;;5.67;3.47;;;;;;;-145.69;100.00;52749.38;5096546;28;20206;-83
2022/12/06 01:06:34;;;;;;;5.47;3.37;;;;;;;-145.69;100.00;52790.97;5097447;28;20267;-83
2022/12/06 01:09:04;;;;;;;6.77;3.57;;;;;;;-145.69;100.00;52794.94;5096089;28;20285;-84
2022/12/06 01:11:34;;;;;;;6.80;3.90;;;;;;;-145.69;100.00;52753.34;5096271;28;20291;-83
2022/12/06 01:14:01;;;;;;;6.67;3.50;;;;;;;-145.69;100.00;52743.44;5095943;28;20209;-83
2022/12/06 01:16:30;;;;;;;6.10;3.77;;;;;;;-145.69;100.00;52773.16;5095818;28;20274;-84
2022/12/06 01:19:00;;;;;;;6.57;3.33;;;;;;;-145.69;100.00;52731.56;5096045;28;20190;-83
2022/12/06 01:21:28;;;;;;;7.43;3.53;;;;;;;-145.69;100.00;52757.31;5095987;28;20636;-83
2022/12/06 01:23:54;;;;;;;6.00;3.53;;;;;;;-145.69;100.00;52816.72;5095487;28;20667;-83
2022/12/06 01:26:23;;;;;;;7.07;3.60;;;;;;;-145.69;100.00;52743.44;5095858;28;20230;-83
2022/12/06 01:28:50;;;;;;;9.03;3.27;;;;;;;-145.69;100.00;52737.50;5095673;28;20198;-83
2022/12/06 01:31:16;;;;;;;5.53;3.40;;;;;;;-145.69;100.00;52733.53;5096059;28;20649;-83
2022/12/06 01:33:43;;;;;;;6.80;3.40;;;;;;;-145.69;100.00;52765.22;5095877;28;20305;-84
2022/12/06 01:36:17;;;;;;;5.50;3.00;;;;;;;-145.69;100.00;52743.44;5095682;28;20233;-83
2022/12/06 01:38:44;;;;;;;5.03;3.17;;;;;;;-145.69;100.00;52757.31;5095627;28;20213;-83
2022/12/06 01:41:10;;;;;;;6.57;2.87;;;;;;;-145.69;100.00;52765.22;5095448;28;20305;-84
2022/12/06 01:43:39;;;;;;;6.70;3.10;;;;;;;-145.69;100.00;52765.22;5095281;28;20290;-83
2022/12/06 01:46:16;;;;;;;5.30;2.90;;;;;;;-145.69;100.00;52753.34;5095683;28;20243;-83
2022/12/06 01:48:44;;;;;;;4.93;2.70;;;;;;;-145.69;100.00;52765.22;5095276;28;20194;-83
2022/12/06 01:51:17;;;;;;;4.33;2.43;;;;;;;-145.69;100.00;52808.78;5095582;28;20202;-83
2022/12/06 01:53:46;;;;;;;5.47;3.00;;;;;;;-145.69;100.00;52781.06;5095477;28;20198;-83
2022/12/06 01:56:17;;;;;;;5.63;3.00;;;;;;;-145.69;100.00;52798.91;5095530;28;20202;-83
2022/12/06 01:58:48;;;;;;;5.73;3.07;;;;;;;-145.69;100.00;52794.94;5095414;28;20601;-83
2022/12/06 02:01:14;;;;;;;6.77;3.27;;;;;;;-145.69;100.00;52777.09;5095409;28;20538;-83
2022/12/06 02:03:42;;;;;;;7.75;3.70;;;;;;;-145.69;100.00;52787.00;5094187;28;20436;-83
2022/12/06 02:06:09;;;;;;;7.87;3.37;;;;;;;-145.69;100.00;52777.09;5095111;28;20194;-83
2022/12/06 02:08:40;;;;;;;6.60;3.40;;;;;;;-145.69;100.00;52812.75;5094714;28;20618;-83
2022/12/06 02:11:08;;;;;;;7.67;4.00;;;;;;;-145.69;100.00;52781.06;5095311;28;20202;-83
2022/12/06 02:13:39;;;;;;;9.40;3.27;;;;;;;-145.69;100.00;52765.22;5094872;28;20213;-83
2022/12/06 02:16:15;;;;;;;8.57;3.70;;;;;;;-145.69;100.00;52757.31;5094941;28;20197;-82
2022/12/06 02:18:48;;;;;;;6.93;3.43;;;;;;;-145.69;100.00;52789.00;5094976;28;20225;-83
2022/12/06 02:21:25;;;;;;;7.17;3.30;;;;;;;-145.69;100.00;52765.22;5095135;28;20197;-83
2022/12/06 02:24:30;;;;;;;4.90;3.03;;;;;;;-145.69;100.00;52792.94;5093653;28;20233;-83
2022/12/06 02:27:10;;;;;;;5.50;2.90;;;;;;;-145.69;100.00;52783.06;5095007;28;20249;-83
2022/12/06 02:30:01;;;;;;;8.07;3.40;;;;;;;-145.69;100.00;52802.84;5094770;28;20205;-83
2022/12/06 02:32:35;;;;;;;5.10;2.90;;;;;;;-145.69;100.00;52783.06;5094756;28;20198;-83
2022/12/06 02:35:10;;;;;;;4.37;2.47;;;;;;;-145.69;100.00;52737.50;5094859;28;20253;-83
2022/12/06 02:37:44;;;;;;;8.50;2.63;;;;;;;-145.69;100.00;52767.19;5094692;28;20223;-83
2022/12/06 02:40:15;;;;;;;5.63;2.50;;;;;;;-145.69;100.00;52777.09;5094555;28;20205;-83
2022/12/06 02:42:47;;;;;;;7.03;2.97;;;;;;;-145.69;100.00;52789.00;5094706;28;20395;-83
2022/12/06 02:45:18;;;;;;;5.83;2.90;;;;;;;-145.69;100.00;52733.53;5097629;28;20585;-82
2022/12/06 02:47:49;;;;;;;6.67;3.07;;;;;;;-145.69;100.00;52812.75;5100809;28;20592;-81
2022/12/06 02:50:19;;;;;;;6.57;3.27;;;;;;;-145.69;100.00;52769.19;5084646;28;20258;-83
2022/12/06 02:52:49;;;;;;;6.37;3.40;;;;;;;-145.69;100.00;52775.13;5080829;28;20201;-83
2022/12/06 02:55:17;;;;;;;5.50;3.30;;;;;;;-145.69;100.00;52781.06;5074790;28;20206;-83
2022/12/06 02:57:46;;;;;;;5.93;3.07;;;;;;;-145.69;100.00;52731.56;5076892;28;20268;-83
2022/12/06 03:00:40;;;;;;;6.20;3.37;;;;;;;-145.69;100.00;52757.31;5076442;28;20574;-83
2022/12/06 03:03:35;;;;;;;8.67;3.97;;;;;;;-145.69;100.00;52785.03;5052035;28;20199;-83
2022/12/06 03:06:14;;;;;;;8.07;3.40;;;;;;;-145.69;100.00;52785.03;5066691;28;20556;-83
2022/12/06 03:08:54;;;;;;;7.70;3.53;;;;;;;-145.69;100.00;52781.06;5094151;28;20222;-84
2022/12/06 03:11:21;;;;;;;4.97;3.13;;;;;;;-145.69;100.00;52743.44;5094133;28;20235;-83
2022/12/06 03:14:01;;;;;;;8.07;3.23;;;;;;;-145.69;100.00;52783.06;5093965;28;20190;-84
2022/12/06 03:16:29;;;;;;;7.20;3.33;;;;;;;-145.69;100.00;52787.00;5093142;28;20201;-84
2022/12/06 03:19:04;;;;;;;6.57;3.40;;;;;;;-145.69;100.00;52761.25;5093765;28;20233;-83
2022/12/06 03:21:33;;;;;;;5.37;3.20;;;;;;;-145.69;100.00;52777.09;5093684;28;20201;-83
2022/12/06 03:24:01;;;;;;;6.60;3.53;;;;;;;-145.69;100.00;52769.19;5093978;28;20273;-83
2022/12/06 03:26:31;;;;;;;6.63;3.30;;;;;;;-145.69;100.00;52785.03;5093550;28;20206;-83
2022/12/06 03:29:01;;;;;;;5.80;3.20;;;;;;;-145.69;100.00;52757.31;5093710;28;20682;-83
2022/12/06 03:31:31;;;;;;;5.23;2.70;;;;;;;-145.69;100.00;52765.22;5093657;28;20198;-83
2022/12/06 03:34:03;;;;;;;6.57;3.53;;;;;;;-145.69;100.00;52777.09;5093554;28;20198;-83
2022/12/06 03:36:32;;;;;;;5.87;3.17;;;;;;;-145.69;100.00;52775.13;5093307;28;20734;-83
2022/12/06 03:39:01;;;;;;;8.97;3.43;;;;;;;-145.69;100.00;52769.19;5093461;28;20206;-83
2022/12/06 03:41:32;;;;;;;6.93;3.00;;;;;;;-145.69;100.00;52779.09;5093367;28;20209;-84
2022/12/06 03:43:59;;;;;;;5.20;2.87;;;;;;;-145.69;100.00;52751.34;5093524;28;20679;-84
2022/12/06 03:46:31;;;;;;;6.43;3.20;;;;;;;-145.69;100.00;52804.84;5093245;28;20316;-83
2022/12/06 03:49:04;;;;;;;11.27;3.53;;;;;;;-145.69;100.00;52745.41;5093746;28;20296;-83
2022/12/06 03:51:33;;;;;;;6.57;3.53;;;;;;;-145.69;100.00;52773.16;5093336;28;20201;-83
2022/12/06 03:54:03;;;;;;;6.23;2.90;;;;;;;-145.69;100.00;52767.19;5093916;28;20201;-82
2022/12/06 03:56:29;;;;;;;6.90;3.78;;;;;;;-145.69;100.00;52792.94;5092726;28;20919;-83
2022/12/06 03:58:56;;;;;;;7.73;3.47;;;;;;;-145.69;100.00;52777.09;5093232;28;20202;-83
2022/12/06 04:01:23;;;;;;;8.17;2.80;;;;;;;-145.69;100.00;52789.00;5093245;28;20209;-83
2022/12/06 04:03:49;;;;;;;6.10;3.17;;;;;;;-145.69;100.00;52763.25;5093387;28;20212;-83
2022/12/06 04:06:17;;;;;;;5.87;3.00;;;;;;;-145.69;100.00;52781.06;5093014;28;20202;-83
2022/12/06 04:08:44;;;;;;;5.33;2.90;;;;;;;-145.69;100.00;52771.16;5093074;28;20261;-84
2022/12/06 04:11:10;;;;;;;5.40;3.27;;;;;;;-145.69;100.00;52725.63;5093181;28;20201;-83
2022/12/06 04:13:37;;;;;;;7.30;3.20;;;;;;;-145.69;100.00;52804.84;5093056;28;20808;-83
2022/12/06 04:18:09;;;;;;;5.67;3.37;;;;;;;-145.69;100.00;52749.38;5092747;28;20194;-83
2022/12/06 04:18:50;;;;;;;5.80;3.00;;;;;;;-145.69;100.00;52765.22;5093018;28;20302;-84
2022/12/06 04:24:10;;;;;;;5.37;3.13;;;;;;;-145.69;100.00;52753.34;5068402;28;20193;-83
2022/12/06 04:26:36;;;;;;;5.97;3.13;;;;;;;-145.69;100.00;52753.34;5093413;28;20200;-84
2022/12/06 04:40:00;;;;;;;6.07;3.20;;;;;;;-145.69;100.00;52792.94;5096909;28;20208;-83
2022/12/06 04:45:11;;;;;;;5.87;3.00;;;;;;;-145.69;100.00;52779.09;5096670;28;20197;-83
2022/12/06 04:47:38;;;;;;;4.93;2.97;;;;;;;-145.69;100.00;52794.94;5096511;28;20222;-83
2022/12/06 04:50:05;;;;;;;6.20;3.20;;;;;;;-145.69;100.00;52739.47;5096605;28;20218;-83
2022/12/06 04:52:33;;;;;;;5.50;3.17;;;;;;;-145.69;100.00;52755.31;5096497;28;20202;-83
2022/12/06 04:54:59;;;;;;;5.17;3.00;;;;;;;-145.69;100.00;52753.34;5095129;28;20209;-83
2022/12/06 04:57:26;;;;;;;4.83;2.87;;;;;;;-145.69;100.00;52775.13;5076300;28;20199;-83
2022/12/06 04:59:52;;;;;;;5.27;3.00;;;;;;;-145.69;100.00;52769.19;5075915;28;20658;-84
2022/12/06 05:02:19;;;;;;;5.67;2.97;;;;;;;-145.69;100.00;52763.25;5076256;28;20225;-84
2022/12/06 05:04:45;;;;;;;4.93;2.50;;;;;;;-145.69;100.00;52763.25;5076236;28;20198;-83
2022/12/06 05:07:12;;;;;;;6.47;2.93;;;;;;;-145.69;100.00;52787.00;5096359;28;20588;-83
2022/12/06 05:09:40;;;;;;;4.77;2.80;;;;;;;-145.69;100.00;52753.34;5096038;28;20568;-83
2022/12/06 05:12:07;;;;;;;7.03;2.97;;;;;;;-145.69;100.00;52759.28;5095768;28;20226;-82
2022/12/06 05:14:33;;;;;;;3.63;2.40;;;;;;;-145.69;100.00;52747.41;5096087;28;20661;-82
2022/12/06 05:17:00;;;;;;;5.77;3.10;;;;;;;-145.69;100.00;52777.09;5096161;28;20206;-83
2022/12/06 05:19:27;;;;;;;4.30;2.67;;;;;;;-145.69;100.00;52767.19;5096075;28;20202;-83
2022/12/06 05:21:53;;;;;;;5.93;2.57;;;;;;;-145.69;100.00;52792.94;5095993;28;20235;-83
2022/12/06 05:24:20;;;;;;;5.13;2.80;;;;;;;-145.69;100.00;52773.16;5095836;28;20202;-83
2022/12/06 05:26:48;;;;;;;5.13;2.80;;;;;;;-145.69;100.00;52773.16;5096057;28;20198;-83
2022/12/06 05:29:14;;;;;;;4.40;2.60;;;;;;;-145.69;100.00;52767.19;5095908;28;20241;-83
2022/12/06 05:31:42;;;;;;;5.50;3.23;;;;;;;-145.69;100.00;52777.09;5095931;28;20194;-83
2022/12/06 05:34:09;;;;;;;6.63;3.20;;;;;;;-145.69;100.00;52765.22;5095712;28;20205;-83
2022/12/06 05:36:35;;;;;;;8.00;3.17;;;;;;;-145.69;100.00;52749.38;5095949;28;20676;-83
2022/12/06 05:39:03;;;;;;;4.43;2.70;;;;;;;-145.69;100.00;52745.41;5094475;28;20199;-83
2022/12/06 05:41:30;;;;;;;4.88;2.95;;;;;;;-145.69;100.00;52745.41;5095720;28;20444;-83
2022/12/06 05:43:57;;;;;;;4.73;2.80;;;;;;;-145.69;100.00;52761.25;5095652;28;20229;-83
2022/12/06 05:46:24;;;;;;;4.57;2.83;;;;;;;-145.69;100.00;52753.34;5095539;28;20202;-83
2022/12/06 05:48:50;;;;;;;5.63;2.80;;;;;;;-145.69;100.00;52765.22;5095504;28;20230;-82
2022/12/06 05:51:18;;;;;;;5.83;2.73;;;;;;;-145.69;100.00;52757.31;5095490;28;20198;-83
2022/12/06 05:53:44;;;;;;;6.27;3.20;;;;;;;-145.69;100.00;52761.25;5095116;28;20202;-83
2022/12/06 05:56:12;;;;;;;4.57;2.40;;;;;;;-145.69;100.00;52721.66;5095567;28;20198;-83
2022/12/06 05:58:40;;;;;;;4.43;2.77;;;;;;;-145.69;100.00;52709.78;5095527;28;20719;-83
2022/12/06 06:01:09;;;;;;;3.43;2.10;;;;;;;-145.69;100.00;52749.38;5095358;28;20202;-83
2022/12/06 06:03:36;;;;;;;3.47;2.50;;;;;;;-145.69;100.00;52781.06;5095191;28;20195;-82
2022/12/06 06:06:03;;;;;;;4.00;2.60;;;;;;;-145.69;100.00;52761.25;5095111;28;20201;-83
2022/12/06 06:08:31;;;;;;;4.47;2.60;;;;;;;-145.69;100.00;52775.13;5094644;28;20706;-83
2022/12/06 06:10:58;;;;;;;6.00;2.57;;;;;;;-145.69;100.00;52715.72;5094940;28;20190;-83
2022/12/06 06:13:25;;;;;;;5.00;2.43;;;;;;;-145.69;100.00;52763.25;5095007;28;20561;-83
2022/12/06 06:15:52;;;;;;;4.50;2.87;;;;;;;-145.69;100.00;52743.44;5094900;28;20198;-82
2022/12/06 06:18:20;;;;;;;4.47;2.50;;;;;;;-145.69;100.00;52735.50;5094838;28;20297;-83
2022/12/06 06:20:51;;;;;;;6.70;2.63;;;;;;;-145.69;100.00;52777.09;5094684;28;20255;-84
2022/12/06 06:23:19;;;;;;;4.33;2.63;;;;;;;-145.69;100.00;52773.16;5094650;28;20202;-83
2022/12/06 06:25:46;;;;;;;4.40;2.47;;;;;;;-145.69;100.00;52785.03;5095005;28;20230;-83
2022/12/06 06:28:13;;;;;;;3.70;2.50;;;;;;;-145.69;100.00;52773.16;5094681;28;20233;-83
2022/12/06 06:30:40;;;;;;;4.03;2.40;;;;;;;-145.69;100.00;52761.25;5094464;28;20198;-83
2022/12/06 06:33:06;;;;;;;5.87;2.80;;;;;;;-145.69;100.00;52769.19;5090421;28;20194;-82
2022/12/06 06:35:34;;;;;;;5.13;3.30;;;;;;;-145.69;100.00;52769.19;5093901;28;20445;-82
2022/12/06 06:38:01;;;;;;;5.03;2.60;;;;;;;-145.69;100.00;52749.38;5094307;28;20648;-82
2022/12/06 06:40:27;;;;;;;5.00;2.93;;;;;;;-145.69;100.00;52757.31;5094321;28;20197;-82
2022/12/06 06:42:54;;;;;;;5.07;2.90;;;;;;;-145.69;100.00;52737.50;5094387;28;20209;-83
2022/12/06 06:45:21;;;;;;;7.27;3.20;;;;;;;-145.69;100.00;52735.50;5094271;28;20205;-83
2022/12/06 06:47:47;;;;;;;7.40;2.80;;;;;;;-145.69;100.00;52769.19;5093971;28;20232;-83
2022/12/06 06:50:16;;;;;;;5.67;3.03;;;;;;;-145.69;100.00;52737.50;5093716;28;20707;-82
2022/12/06 06:52:44;;;;;;;3.97;2.63;;;;;;;-145.69;100.00;52769.19;5088131;28;20281;-83
2022/12/06 06:55:10;;;;;;;7.10;3.13;;;;;;;-145.69;100.00;52751.34;5094298;28;20243;-83
2022/12/06 06:57:39;;;;;;;3.87;2.50;;;;;;;-145.69;100.00;52715.72;5094345;28;20201;-83
2022/12/06 07:00:07;;;;;;;4.13;2.60;;;;;;;-145.69;100.00;52763.25;5094220;28;20202;-83
2022/12/06 07:02:34;;;;;;;6.63;3.10;;;;;;;-145.69;100.00;52741.47;5095399;28;20305;-82
2022/12/06 07:05:00;;;;;;;6.37;3.37;;;;;;;-145.69;100.00;52757.31;5094902;28;20201;-82
2022/12/06 07:07:27;;;;;;;5.10;3.00;;;;;;;-145.69;100.00;52767.19;5094061;28;20197;-82
2022/12/06 07:09:55;;;;;;;3.00;2.10;;;;;;;-145.69;100.00;52749.38;5093841;28;20231;-83
2022/12/06 07:12:21;;;;;;;6.60;2.70;;;;;;;-145.69;100.00;52729.56;5094149;28;20198;-83
2022/12/06 07:14:47;;;;;;;5.57;3.07;;;;;;;-145.69;100.00;52757.31;5093655;28;20652;-82
2022/12/06 07:17:14;;;;;;;3.97;2.43;;;;;;;-145.69;100.00;52753.34;5094018;28;20205;-82
2022/12/06 07:19:40;;;;;;;4.40;2.87;;;;;;;-145.69;100.00;52737.50;5093877;28;20288;-82
2022/12/06 07:22:08;;;;;;;4.97;2.77;;;;;;;-145.69;100.00;52775.13;5093532;28;20190;-83
2022/12/06 07:24:35;;;;;;;5.22;3.20;;;;;;;-145.69;100.00;52769.19;5092520;28;20566;-82
2022/12/06 07:27:03;;;;;;;5.13;3.20;;;;;;;-145.69;100.00;52787.00;5094719;28;20190;-84
2022/12/06 07:29:29;;;;;;;8.50;3.03;;;;;;;-145.69;100.00;52743.44;5093312;28;20225;-83
2022/12/06 07:31:56;;;;;;;4.13;2.50;;;;;;;-145.69;100.00;52761.25;5095036;28;20202;-82
2022/12/06 07:34:23;;;;;;;4.33;2.40;;;;;;;-145.69;100.00;52745.41;5098424;28;20194;-81
2022/12/06 07:36:49;;;;;;;4.47;2.53;;;;;;;-145.69;100.00;52719.66;5098280;28;20224;-81
2022/12/06 07:39:16;;;;;;;6.10;2.70;;;;;;;-145.69;100.00;52761.25;5098330;28;20560;-80
2022/12/06 07:47:11;;;;;;;4.23;2.80;;;;;;;-145.69;100.00;52765.22;5097651;28;20205;-81
2022/12/06 07:49:38;;;;;;;5.83;2.70;;;;;;;-145.69;100.00;52743.44;5099996;28;20221;-81
2022/12/06 07:52:05;;;;;;;3.93;1.90;;;;;;;-145.69;100.00;52731.56;5106508;28;20200;-81
2022/12/06 07:54:31;;;;;;;3.60;2.30;;;;;;;-145.69;100.00;52761.25;5108072;28;20202;-81
2022/12/06 07:56:58;;;;;;;5.53;2.90;;;;;;;-145.69;100.00;52717.69;5105876;28;20309;-81
2022/12/06 07:59:25;;;;;;;3.87;2.57;;;;;;;-145.69;100.00;52741.47;5106472;28;20214;-81
2022/12/06 08:01:53;;;;;;;4.67;2.60;;;;;;;-145.69;100.00;52753.34;5106194;28;20206;-81
2022/12/06 08:04:20;;;;;;;4.13;2.67;;;;;;;-145.69;100.00;52749.38;5108064;28;20205;-81
2022/12/06 08:06:46;;;;;;;4.67;2.67;;;;;;;-145.69;100.00;52773.16;5102289;28;20230;-80
2022/12/06 08:09:13;;;;;;;4.30;2.40;;;;;;;-145.69;100.00;52751.34;5102359;28;20226;-81
2022/12/06 08:11:40;;;;;;;4.73;2.73;;;;;;;-145.69;100.00;52765.22;5097600;28;20297;-81
2022/12/06 08:14:06;;;;;;;5.87;2.63;;;;;;;-145.69;100.00;52725.63;5097020;28;20205;-81
2022/12/06 08:16:33;;;;;;;4.33;2.60;;;;;;;-145.69;100.00;52749.38;5094894;28;20202;-81
2022/12/06 08:19:01;;;;;;;3.50;2.50;;;;;;;-145.69;100.00;52733.53;5101922;28;20210;-81
2022/12/06 08:21:27;;;;;;;6.27;2.77;;;;;;;-145.69;100.00;52733.53;5103941;28;20201;-81
2022/12/06 08:23:54;;;;;;;5.53;2.80;;;;;;;-145.69;100.00;52757.31;5105139;28;20202;-81
2022/12/06 08:26:22;;;;;;;4.40;2.67;;;;;;;-145.69;100.00;52765.22;5106545;28;20209;-81
2022/12/06 08:28:48;;;;;;;4.17;2.60;;;;;;;-145.69;100.00;52745.41;5107097;28;20229;-81
2022/12/06 08:31:18;;;;;;;6.50;2.97;;;;;;;-145.69;100.00;52749.38;5107278;28;20233;-81
2022/12/06 08:33:45;;;;;;;5.90;3.57;;;;;;;-145.69;100.00;52731.56;5106271;28;20587;-81
2022/12/06 08:36:15;;;;;;;7.50;4.07;;;;;;;-145.69;100.00;52761.25;5103723;28;20242;-83
2022/12/06 08:38:42;;;;;;;7.33;4.10;;;;;;;-145.69;100.00;52725.63;5098066;28;20253;-82
2022/12/06 08:41:54;;;;;;;10.50;5.07;;;;;;;-145.69;100.00;52717.69;5096760;28;20194;-83
2022/12/06 08:43:59;;;;;;;10.93;5.80;;;;;;;-145.69;100.00;52757.31;5094688;28;20691;-81
2022/12/06 08:46:27;;;;;;;13.03;6.43;;;;;;;-145.69;100.00;52747.41;5095185;28;20568;-82
2022/12/06 08:48:54;;;;;;;14.13;6.90;;;;;;;-145.69;100.00;52769.19;5096870;28;20233;-82
2022/12/06 08:51:22;;;;;;;14.57;6.83;;;;;;;-145.69;100.00;52725.63;5096585;28;20289;-83
2022/12/06 08:53:49;;;;;;;13.67;7.27;;;;;;;-145.69;100.00;52753.34;5097264;28;20197;-82
2022/12/06 08:56:15;;;;;;;13.13;6.87;;;;;;;-145.69;100.00;52763.25;5092991;28;20206;-83
2022/12/06 08:58:42;;;;;;;16.60;6.83;;;;;;;-145.69;100.00;52765.22;5095742;28;20296;-81
2022/12/06 09:01:13;;;;;;;14.60;7.63;;;;;;;-145.69;100.00;52773.16;5096860;28;20206;-83
2022/12/06 09:03:39;;;;;;;15.70;8.37;;;;;;;-145.69;100.00;52697.88;5097346;28;20573;-82
2022/12/06 09:06:06;;;;;;;18.80;8.17;;;;;;;-145.69;100.00;52743.44;5094307;28;20201;-81
2022/12/06 09:08:35;;;;;;;14.87;8.10;;;;;;;-145.69;100.00;52717.69;5096320;28;20703;-81
2022/12/06 09:11:01;;;;;;;15.77;7.40;;;;;;;-145.69;100.00;52755.31;5095964;28;20196;-83
2022/12/06 09:13:28;;;;;;;17.13;7.77;;;;;;;-145.69;100.00;52705.81;5090662;28;20309;-78
2022/12/06 09:15:54;;;;;;;13.83;7.13;;;;;;;-145.69;100.00;52745.41;5097383;28;20206;-81
2022/12/06 09:18:21;;;;;;;15.40;8.13;;;;;;;-145.69;100.00;52747.41;5097834;28;20203;-80
2022/12/06 09:20:47;;;;;;;12.90;6.47;;;;;;;-145.69;100.00;52747.41;5097553;28;20204;-80
2022/12/06 09:23:14;;;;;;;14.80;7.00;;;;;;;-145.69;100.00;52721.66;5096859;28;20194;-81
2022/12/06 09:25:43;;;;;;;12.77;6.03;;;;;;;-145.69;100.00;52757.31;5096776;28;20209;-80
2022/12/06 09:28:10;;;;;;;11.87;6.17;;;;;;;-145.69;100.00;52715.72;5096192;28;20285;-80
2022/12/06 09:30:37;;;;;;;13.17;6.27;;;;;;;-145.69;100.00;52743.44;5096109;28;20712;-81
2022/12/06 09:33:03;;;;;;;10.87;5.97;;;;;;;-145.69;100.00;52729.56;5095868;28;20198;-81
2022/12/06 09:35:30;;;;;;;13.83;6.80;;;;;;;-145.69;100.00;52741.47;5096055;28;20237;-81
2022/12/06 09:37:58;;;;;;;10.67;5.70;;;;;;;-145.69;100.00;52717.69;5096187;28;20582;-80
2022/12/06 09:40:32;;;;;;;10.97;5.87;;;;;;;-145.69;100.00;52721.66;5096076;28;20206;-81
2022/12/06 09:43:14;;;;;;;15.47;7.07;;;;;;;-145.69;100.00;52751.34;5095441;28;20202;-81
2022/12/06 09:46:02;;;;;;;13.60;6.77;;;;;;;-145.69;100.00;52775.13;5095645;28;20205;-80
2022/12/06 09:48:57;;;;;;;12.23;5.70;;;;;;;-145.69;100.00;52721.66;5095115;28;20190;-80
2022/12/06 09:51:58;;;;;;;11.03;5.90;;;;;;;-145.69;100.00;52739.47;5095491;28;20220;-81
2022/12/06 09:54:40;;;;;;;12.33;5.93;;;;;;;-145.69;100.00;52733.53;5084749;28;20212;-82
2022/12/06 09:57:12;;;;;;;13.87;6.67;;;;;;;-145.69;100.00;52709.78;5094721;28;20537;-81
2022/12/06 09:59:50;;;;;;;12.23;6.30;;;;;;;-145.69;100.00;52735.50;5095357;28;20596;-81
2022/12/06 10:02:31;;;;;;;12.43;6.83;;;;;;;-145.69;100.00;52733.53;5095163;28;20201;-80
2022/12/06 10:05:13;;;;;;;12.27;6.83;;;;;;;-145.69;100.00;52757.31;5095077;28;20198;-84
2022/12/06 10:07:47;;;;;;;13.37;6.77;;;;;;;-145.69;100.00;52725.63;5094811;28;20194;-81
2022/12/06 10:10:19;;;;;;;12.40;6.53;;;;;;;-145.69;100.00;52737.50;5094956;28;20283;-82
2022/12/06 10:12:59;;;;;;;12.37;6.40;;;;;;;-145.69;100.00;52717.69;5094708;28;20205;-80
2022/12/06 10:15:39;;;;;;;14.47;7.23;;;;;;;-145.69;100.00;52709.78;5094466;28;20194;-81
2022/12/06 10:18:32;;;;;;;13.70;7.60;;;;;;;-145.69;100.00;52701.84;5094061;28;20648;-81
2022/12/06 10:21:09;;;;;;;12.90;6.77;;;;;;;-145.69;100.00;52733.53;5094932;28;20233;-83
2022/12/06 10:23:54;;;;;;;10.43;5.67;;;;;;;-145.69;100.00;52701.84;5094859;28;20572;-83
2022/12/06 10:26:31;;;;;;;19.27;6.30;;;;;;;-145.69;100.00;52721.66;5094432;28;20363;-82
2022/12/06 10:29:06;;;;;;;13.13;6.60;;;;;;;-145.69;100.00;52725.63;5095108;28;20750;-84
2022/12/06 10:31:43;;;;;;;10.17;5.50;;;;;;;-145.69;100.00;52713.72;5095188;28;20198;-83
2022/12/06 10:34:19;;;;;;;9.90;5.67;;;;;;;-145.69;100.00;52709.78;5095609;28;20208;-83
2022/12/06 10:37:00;;;;;;;13.40;6.57;;;;;;;-145.69;100.00;52686.00;5095124;28;20248;-84
2022/12/06 10:39:32;;;;;;;9.53;5.47;;;;;;;-145.69;100.00;52729.56;5095362;28;20209;-84
2022/12/06 10:42:04;;;;;;;11.70;5.47;;;;;;;-145.69;100.00;52695.91;5095245;28;20205;-83
2022/12/06 10:44:35;;;;;;;7.73;4.40;;;;;;;-145.69;100.00;52705.81;5095281;28;20289;-83
2022/12/06 10:47:07;;;;;;;10.30;5.30;;;;;;;-145.69;100.00;52701.84;5094909;28;20204;-84
2022/12/06 10:49:40;;;;;;;10.80;5.93;;;;;;;-145.69;100.00;52717.69;5095030;28;20260;-83
2022/12/06 10:52:19;;;;;;;9.33;4.97;;;;;;;-145.69;100.00;52689.97;5095264;28;20209;-84
2022/12/06 10:54:55;;;;;;;9.97;5.37;;;;;;;-145.69;100.00;52701.84;5094988;28;20652;-83
2022/12/06 10:57:29;;;;;;;7.77;5.07;;;;;;;-145.69;100.00;52713.72;5086573;28;20212;-83
2022/12/06 11:00:01;;;;;;;11.03;5.23;;;;;;;-145.69;100.00;52705.81;5074787;28;20206;-84
2022/12/06 11:02:36;;;;;;;10.53;5.53;;;;;;;-145.69;100.00;52731.56;5076132;28;20248;-84
2022/12/06 11:05:07;;;;;;;13.10;5.00;;;;;;;-145.69;100.00;52693.94;5074878;28;20198;-83
2022/12/06 11:07:39;;;;;;;7.77;5.03;;;;;;;-145.69;100.00;52674.13;5074559;28;20209;-82
2022/12/06 11:10:15;;;;;;;9.00;5.40;;;;;;;-145.69;100.00;52693.94;5074133;28;20237;-83
2022/12/06 11:12:43;;;;;;;8.43;4.73;;;;;;;-145.69;100.00;52705.81;5074002;28;20205;-83
2022/12/06 11:15:18;;;;;;;24.77;8.97;;;;;;;-145.69;100.00;52733.53;5077724;28;20210;-82
2022/12/06 11:17:49;;;;;;;16.20;6.90;;;;;;;-145.69;100.00;52693.94;5081113;28;20576;-82
2022/12/06 11:20:24;;;;;;;9.53;5.17;;;;;;;-145.69;100.00;52664.22;5078929;28;20542;-84
2022/12/06 11:23:04;;;;;;;8.57;5.13;;;;;;;-145.69;100.00;52701.84;5073584;28;20296;-84
2022/12/06 11:25:39;;;;;;;10.13;5.63;;;;;;;-145.69;100.00;52709.78;5073917;28;20222;-84
2022/12/06 11:28:20;;;;;;;7.13;4.20;;;;;;;-145.69;100.00;52686.00;5084259;28;20197;-83
2022/12/06 11:30:47;;;;;;;8.93;5.03;;;;;;;-145.69;100.00;52701.84;5093764;28;20236;-84
2022/12/06 11:33:15;;;;;;;8.83;5.10;;;;;;;-145.69;100.00;52711.75;5093339;28;20201;-84
2022/12/06 11:35:45;;;;;;;10.80;5.53;;;;;;;-145.69;100.00;52717.69;5093334;28;20249;-84
2022/12/06 11:38:14;;;;;;;14.10;5.73;;;;;;;-145.69;100.00;52684.03;5092537;28;20198;-83
2022/12/06 11:40:44;;;;;;;11.53;5.67;;;;;;;-145.69;100.00;52709.78;5093509;28;20206;-84